Time;durP1;ratioP1;P1;durP2;ratioP2;P2;SDS_P1;SDS_P2;PMS_P1;PMS_P2;Temp;Humidity;BMP_temperature;BMP_pressure;BME280_temperature;BME280_humidity;BME280_pressure;Samples;Min_cycle;Max_cycle;Signal;HPM_P1;HPM_P2
2022/02/21 00:02:09;;;;;;;2.30;1.00;;;;;;;;;;5039380;28;20513;-82
2022/02/21 00:04:36;;;;;;;1.70;1.00;;;;;;;;;;5044527;28;20414;-81
2022/02/21 00:07:02;;;;;;;1.73;0.97;;;;;;;;;;5044318;28;20411;-81
2022/02/21 00:09:28;;;;;;;1.57;1.00;;;;;;;;;;5060282;28;20457;-82
2022/02/21 00:11:54;;;;;;;1.60;0.90;;;;;;;;;;5058414;28;20414;-81
2022/02/21 00:14:20;;;;;;;3.53;0.90;;;;;;;;;;5057417;28;20415;-82
2022/02/21 00:16:46;;;;;;;3.67;1.00;;;;;;;;;;5039981;28;20410;-82
2022/02/21 00:19:12;;;;;;;4.17;0.90;;;;;;;;;;5040833;28;20422;-81
2022/02/21 00:21:39;;;;;;;3.50;1.00;;;;;;;;;;5042227;28;20482;-81
2022/02/21 00:24:05;;;;;;;1.43;1.10;;;;;;;;;;5057666;28;20406;-82
2022/02/21 00:26:31;;;;;;;1.80;1.00;;;;;;;;;;5054470;28;20429;-82
2022/02/21 00:28:57;;;;;;;1.50;0.90;;;;;;;;;;5038544;28;20466;-82
2022/02/21 00:31:23;;;;;;;1.50;1.00;;;;;;;;;;5038978;28;20410;-82
2022/02/21 00:33:49;;;;;;;1.30;0.70;;;;;;;;;;5038470;28;20423;-82
2022/02/21 00:36:16;;;;;;;1.63;0.93;;;;;;;;;;5038822;28;20398;-82
2022/02/21 00:38:42;;;;;;;2.50;1.00;;;;;;;;;;5037808;28;20422;-82
2022/02/21 00:41:09;;;;;;;1.50;0.90;;;;;;;;;;5039947;28;20460;-82
2022/02/21 00:43:35;;;;;;;1.83;0.90;;;;;;;;;;5041777;28;20406;-79
2022/02/21 00:46:01;;;;;;;1.73;0.93;;;;;;;;;;5053916;28;20476;-82
2022/02/21 00:48:28;;;;;;;1.70;0.80;;;;;;;;;;5038527;28;20458;-82
2022/02/21 00:50:54;;;;;;;1.73;1.20;;;;;;;;;;5038556;28;20410;-79
2022/02/21 00:53:20;;;;;;;1.60;0.90;;;;;;;;;;5037317;28;20406;-79
2022/02/21 00:55:47;;;;;;;1.63;0.90;;;;;;;;;;5051963;28;20499;-79
2022/02/21 00:58:13;;;;;;;1.47;0.93;;;;;;;;;;5036659;28;20433;-79
2022/02/21 01:00:40;;;;;;;1.50;0.90;;;;;;;;;;5036513;28;20406;-79
2022/02/21 01:03:06;;;;;;;1.40;0.80;;;;;;;;;;5052312;28;20407;-79
2022/02/21 01:05:33;;;;;;;1.63;0.93;;;;;;;;;;5039051;28;20414;-81
2022/02/21 01:07:59;;;;;;;1.73;1.10;;;;;;;;;;5054706;28;20434;-81
2022/02/21 01:10:25;;;;;;;1.57;0.80;;;;;;;;;;5058488;28;20446;-79
2022/02/21 01:12:51;;;;;;;1.50;1.00;;;;;;;;;;5055900;28;20438;-81
2022/02/21 01:15:17;;;;;;;1.87;0.77;;;;;;;;;;5038537;28;20398;-81
2022/02/21 01:17:44;;;;;;;1.80;0.80;;;;;;;;;;5038703;28;20537;-81
2022/02/21 01:20:13;;;;;;;3.30;0.90;;;;;;;;;;5038311;28;20413;-81
2022/02/21 01:22:40;;;;;;;1.60;0.90;;;;;;;;;;5037150;28;20824;-79
2022/02/21 01:25:07;;;;;;;1.60;0.80;;;;;;;;;;5052152;28;20410;-79
2022/02/21 01:27:33;;;;;;;1.50;0.93;;;;;;;;;;5052439;28;20431;-81
2022/02/21 01:29:59;;;;;;;1.97;1.00;;;;;;;;;;5040462;28;20446;-82
2022/02/21 01:32:25;;;;;;;2.07;0.90;;;;;;;;;;5038324;28;20395;-81
2022/02/21 01:34:51;;;;;;;1.90;1.00;;;;;;;;;;5038263;28;20442;-81
2022/02/21 01:37:18;;;;;;;1.50;0.87;;;;;;;;;;5039635;28;20404;-81
2022/02/21 01:39:44;;;;;;;1.60;1.00;;;;;;;;;;5041742;28;20406;-80
2022/02/21 01:42:10;;;;;;;2.10;1.20;;;;;;;;;;5041345;28;20406;-82
2022/02/21 01:44:38;;;;;;;1.83;0.97;;;;;;;;;;5057157;28;20414;-81
2022/02/21 01:47:06;;;;;;;3.00;1.30;;;;;;;;;;5041589;28;20403;-81
2022/02/21 01:49:32;;;;;;;1.70;0.93;;;;;;;;;;5056960;28;20493;-80
2022/02/21 01:51:59;;;;;;;6.33;1.20;;;;;;;;;;5041701;28;20887;-81
2022/02/21 01:54:25;;;;;;;1.77;1.20;;;;;;;;;;5041357;28;20402;-82
2022/02/21 01:56:53;;;;;;;1.63;0.90;;;;;;;;;;5057251;28;20414;-81
2022/02/21 01:59:19;;;;;;;3.47;1.10;;;;;;;;;;5041387;28;20441;-82
2022/02/21 02:01:45;;;;;;;2.57;1.00;;;;;;;;;;5056824;28;20406;-81
2022/02/21 02:04:11;;;;;;;1.90;1.10;;;;;;;;;;5041425;28;20457;-81
2022/02/21 02:06:37;;;;;;;2.40;1.17;;;;;;;;;;5015292;28;20990;-79
2022/02/21 02:09:04;;;;;;;3.00;1.90;;;;;;;;;;5004521;28;20506;-81
2022/02/21 02:11:32;;;;;;;2.17;1.00;;;;;;;;;;5017521;28;20417;-81
2022/02/21 02:13:58;;;;;;;1.80;1.13;;;;;;;;;;5020019;28;20412;-80
2022/02/21 02:16:24;;;;;;;3.70;1.00;;;;;;;;;;5000284;28;20495;-80
2022/02/21 02:18:50;;;;;;;2.53;1.03;;;;;;;;;;5015624;28;20443;-80
2022/02/21 02:21:21;;;;;;;2.07;1.13;;;;;;;;;;5002353;28;20423;-82
2022/02/21 02:23:48;;;;;;;5.20;0.90;;;;;;;;;;5001363;28;20408;-81
2022/02/21 02:26:14;;;;;;;2.07;0.90;;;;;;;;;;5001429;28;20409;-81
2022/02/21 02:28:40;;;;;;;1.93;1.10;;;;;;;;;;5016391;28;20475;-81
2022/02/21 02:31:06;;;;;;;2.93;1.00;;;;;;;;;;5016482;28;20418;-81
2022/02/21 02:33:33;;;;;;;5.67;0.80;;;;;;;;;;5016130;28;20405;-82
2022/02/21 02:36:00;;;;;;;2.27;1.00;;;;;;;;;;5001379;28;20411;-80
2022/02/21 02:38:26;;;;;;;4.43;1.10;;;;;;;;;;5004915;28;20428;-81
2022/02/21 02:40:52;;;;;;;3.43;1.23;;;;;;;;;;5011158;28;20431;-81
2022/02/21 02:43:18;;;;;;;1.70;1.10;;;;;;;;;;5021567;28;20420;-81
2022/02/21 02:45:44;;;;;;;3.33;1.30;;;;;;;;;;5019094;28;20908;-82
2022/02/21 02:48:11;;;;;;;1.93;1.00;;;;;;;;;;5018181;28;20466;-82
2022/02/21 02:50:38;;;;;;;1.90;0.97;;;;;;;;;;5003485;28;20400;-80
2022/02/21 02:53:04;;;;;;;1.40;0.80;;;;;;;;;;5017506;28;20416;-80
2022/02/21 02:55:30;;;;;;;1.73;1.00;;;;;;;;;;5016805;28;20409;-81
2022/02/21 02:57:56;;;;;;;2.10;1.20;;;;;;;;;;5003780;28;20840;-81
2022/02/21 03:00:23;;;;;;;1.80;0.90;;;;;;;;;;5003908;28;20416;-82
2022/02/21 03:02:49;;;;;;;2.00;1.10;;;;;;;;;;5018576;28;20443;-82
2022/02/21 03:05:15;;;;;;;1.80;1.10;;;;;;;;;;5003053;28;20467;-81
2022/02/21 03:07:41;;;;;;;3.20;0.83;;;;;;;;;;5002018;28;20420;-79
2022/02/21 03:10:08;;;;;;;1.40;0.80;;;;;;;;;;5016751;28;20463;-81
2022/02/21 03:12:34;;;;;;;2.50;1.03;;;;;;;;;;5001458;28;20431;-82
2022/02/21 03:15:00;;;;;;;1.50;1.00;;;;;;;;;;5001196;28;20405;-81
2022/02/21 03:17:26;;;;;;;1.83;1.00;;;;;;;;;;5001004;28;20396;-81
2022/02/21 03:19:52;;;;;;;2.90;1.50;;;;;;;;;;5017117;28;20415;-82
2022/02/21 03:22:18;;;;;;;1.60;0.83;;;;;;;;;;5016789;28;20419;-82
2022/02/21 03:24:44;;;;;;;2.13;1.00;;;;;;;;;;5001137;28;20458;-81
2022/02/21 03:27:10;;;;;;;1.60;1.10;;;;;;;;;;5001546;28;20451;-82
2022/02/21 03:29:36;;;;;;;1.70;0.87;;;;;;;;;;5000925;28;20464;-81
2022/02/21 03:32:02;;;;;;;4.03;1.30;;;;;;;;;;5001189;28;20404;-81
2022/02/21 03:34:28;;;;;;;1.90;0.80;;;;;;;;;;5001078;28;20488;-81
2022/02/21 03:36:54;;;;;;;3.57;1.40;;;;;;;;;;5003354;28;20478;-82
2022/02/21 03:39:20;;;;;;;1.47;1.00;;;;;;;;;;5009968;28;20500;-81
2022/02/21 03:41:46;;;;;;;1.43;0.90;;;;;;;;;;5001674;28;20430;-80
2022/02/21 03:44:13;;;;;;;1.40;0.90;;;;;;;;;;5014023;28;20482;-82
2022/02/21 03:46:41;;;;;;;2.40;0.90;;;;;;;;;;5022545;28;20408;-80
2022/02/21 03:49:07;;;;;;;1.70;1.20;;;;;;;;;;5020439;28;20530;-82
2022/02/21 03:51:33;;;;;;;1.70;0.93;;;;;;;;;;5020188;28;20410;-82
2022/02/21 03:53:59;;;;;;;3.20;1.00;;;;;;;;;;5020581;28;20439;-81
2022/02/21 03:56:25;;;;;;;2.03;0.97;;;;;;;;;;5020161;28;20410;-81
2022/02/21 03:58:51;;;;;;;2.03;1.07;;;;;;;;;;5020009;28;20910;-80
2022/02/21 04:01:18;;;;;;;1.50;0.80;;;;;;;;;;5019550;28;20407;-80
2022/02/21 04:03:44;;;;;;;2.83;1.23;;;;;;;;;;5020048;28;20407;-80
2022/02/21 04:06:10;;;;;;;1.80;0.90;;;;;;;;;;5021029;28;20820;-82
2022/02/21 04:08:36;;;;;;;3.23;0.80;;;;;;;;;;5021542;28;20462;-80
2022/02/21 04:11:02;;;;;;;1.70;0.87;;;;;;;;;;5020886;28;20415;-82
2022/02/21 04:13:28;;;;;;;1.70;1.00;;;;;;;;;;5020070;28;20399;-82
2022/02/21 04:15:54;;;;;;;2.00;1.00;;;;;;;;;;5035048;28;20403;-82
2022/02/21 04:18:20;;;;;;;1.73;1.00;;;;;;;;;;5019903;28;20433;-81
2022/02/21 04:20:46;;;;;;;2.17;1.00;;;;;;;;;;5019446;28;20400;-82
2022/02/21 04:23:12;;;;;;;1.43;0.97;;;;;;;;;;5019282;28;20411;-82
2022/02/21 04:25:39;;;;;;;2.27;1.03;;;;;;;;;;5031645;28;20445;-82
2022/02/21 04:28:05;;;;;;;1.73;1.20;;;;;;;;;;5018823;28;20443;-82
2022/02/21 04:30:31;;;;;;;4.70;1.00;;;;;;;;;;5025693;28;20431;-82
2022/02/21 04:32:57;;;;;;;1.60;0.90;;;;;;;;;;5038315;28;20406;-82
2022/02/21 04:35:25;;;;;;;4.20;1.27;;;;;;;;;;5053773;28;20449;-82
2022/02/21 04:37:51;;;;;;;2.63;1.10;;;;;;;;;;5038005;28;20426;-82
2022/02/21 04:40:18;;;;;;;4.63;1.17;;;;;;;;;;5053659;28;20781;-82
2022/02/21 04:42:46;;;;;;;1.60;1.00;;;;;;;;;;5053921;28;20414;-82
2022/02/21 04:45:12;;;;;;;1.60;1.00;;;;;;;;;;5053342;28;20474;-82
2022/02/21 04:47:38;;;;;;;1.70;1.07;;;;;;;;;;5053373;28;20438;-81
2022/02/21 04:50:06;;;;;;;2.03;1.13;;;;;;;;;;5053808;28;20450;-82
2022/02/21 04:52:32;;;;;;;2.00;1.10;;;;;;;;;;5037037;28;20968;-82
2022/02/21 04:54:58;;;;;;;2.53;0.80;;;;;;;;;;5053182;28;20485;-82
2022/02/21 04:57:24;;;;;;;2.13;1.20;;;;;;;;;;5037851;28;20899;-82
2022/02/21 04:59:50;;;;;;;3.20;0.83;;;;;;;;;;5038207;28;20417;-82
2022/02/21 05:02:16;;;;;;;1.40;0.90;;;;;;;;;;5054789;28;20476;-82
2022/02/21 05:04:43;;;;;;;3.10;1.53;;;;;;;;;;5054256;28;20414;-82
2022/02/21 05:07:09;;;;;;;1.70;0.90;;;;;;;;;;5041842;28;20411;-82
2022/02/21 05:09:35;;;;;;;1.30;0.70;;;;;;;;;;5060702;28;20454;-81
2022/02/21 05:12:01;;;;;;;3.87;1.00;;;;;;;;;;5047445;28;20906;-82
2022/02/21 05:14:27;;;;;;;1.40;0.80;;;;;;;;;;5061055;28;20410;-82
2022/02/21 05:16:53;;;;;;;1.47;0.80;;;;;;;;;;5059170;28;20490;-82
2022/02/21 05:19:19;;;;;;;1.60;1.00;;;;;;;;;;5042916;28;20422;-82
2022/02/21 05:21:46;;;;;;;2.13;1.00;;;;;;;;;;5057806;28;20419;-82
2022/02/21 05:24:12;;;;;;;1.37;0.80;;;;;;;;;;5057005;28;20469;-82
2022/02/21 05:26:38;;;;;;;2.23;0.83;;;;;;;;;;5057526;28;20411;-82
2022/02/21 05:29:04;;;;;;;1.90;1.17;;;;;;;;;;5053582;22;20633;-78
2022/02/21 05:31:30;;;;;;;2.10;1.10;;;;;;;;;;5040058;28;20417;-78
2022/02/21 05:33:56;;;;;;;1.60;1.00;;;;;;;;;;5042819;28;20488;-78
2022/02/21 05:36:22;;;;;;;1.40;0.70;;;;;;;;;;5042367;28;20478;-78
2022/02/21 05:38:48;;;;;;;1.40;0.90;;;;;;;;;;5040212;28;20934;-78
2022/02/21 05:41:14;;;;;;;2.27;0.80;;;;;;;;;;5041413;28;20395;-78
2022/02/21 05:43:40;;;;;;;1.90;0.80;;;;;;;;;;5042355;28;20410;-78
2022/02/21 05:46:07;;;;;;;1.47;1.00;;;;;;;;;;5042592;28;20421;-78
2022/02/21 05:48:33;;;;;;;1.57;0.90;;;;;;;;;;5039882;28;20453;-78
2022/02/21 05:50:59;;;;;;;6.40;1.10;;;;;;;;;;5040303;28;20411;-78
2022/02/21 05:53:25;;;;;;;1.40;1.00;;;;;;;;;;5039222;28;20490;-78
2022/02/21 05:55:51;;;;;;;1.50;0.90;;;;;;;;;;5041699;28;20406;-78
2022/02/21 05:58:17;;;;;;;1.50;0.83;;;;;;;;;;5042211;28;20710;-78
2022/02/21 06:00:45;;;;;;;2.57;0.90;;;;;;;;;;5042355;28;20446;-79
2022/02/21 06:03:11;;;;;;;3.00;1.40;;;;;;;;;;5042740;28;20426;-78
2022/02/21 06:05:39;;;;;;;3.30;1.23;;;;;;;;;;5041688;28;20403;-78
2022/02/21 06:08:05;;;;;;;2.17;1.13;;;;;;;;;;5040561;28;20399;-77
2022/02/21 06:10:31;;;;;;;1.60;0.90;;;;;;;;;;5042712;28;20468;-78
2022/02/21 06:12:57;;;;;;;2.33;1.20;;;;;;;;;;5041242;28;20425;-78
2022/02/21 06:15:23;;;;;;;2.77;1.27;;;;;;;;;;5042028;28;20405;-79
2022/02/21 06:17:49;;;;;;;1.77;1.50;;;;;;;;;;5039750;28;20883;-78
2022/02/21 06:20:15;;;;;;;3.43;1.30;;;;;;;;;;5039863;28;20770;-78
2022/02/21 06:22:41;;;;;;;2.10;1.10;;;;;;;;;;5039985;28;20399;-80
2022/02/21 06:25:08;;;;;;;1.60;1.27;;;;;;;;;;5042075;28;20407;-78
2022/02/21 06:27:34;;;;;;;3.77;1.40;;;;;;;;;;5040572;28;20545;-78
2022/02/21 06:30:00;;;;;;;2.20;1.00;;;;;;;;;;5041049;28;20923;-79
2022/02/21 06:32:26;;;;;;;3.00;1.30;;;;;;;;;;5040815;28;20741;-80
2022/02/21 06:34:52;;;;;;;1.87;1.23;;;;;;;;;;5041246;28;20462;-79
2022/02/21 06:37:19;;;;;;;2.13;1.13;;;;;;;;;;5039746;28;20419;-80
2022/02/21 06:39:45;;;;;;;1.60;1.30;;;;;;;;;;5040840;28;20457;-80
2022/02/21 06:42:12;;;;;;;5.33;1.50;;;;;;;;;;5042355;28;20442;-80
2022/02/21 06:44:38;;;;;;;8.30;1.60;;;;;;;;;;5039004;28;20418;-80
2022/02/21 06:47:04;;;;;;;1.67;1.13;;;;;;;;;;5040999;28;20429;-80
2022/02/21 06:49:30;;;;;;;2.80;1.53;;;;;;;;;;5041014;28;20453;-79
2022/02/21 06:51:56;;;;;;;2.50;1.33;;;;;;;;;;5040426;28;20806;-80
2022/02/21 06:54:22;;;;;;;2.73;1.73;;;;;;;;;;5040394;28;20744;-80
2022/02/21 06:56:49;;;;;;;4.70;1.60;;;;;;;;;;5040879;28;20410;-79
2022/02/21 06:59:15;;;;;;;4.27;1.90;;;;;;;;;;5040591;28;20426;-80
2022/02/21 07:01:41;;;;;;;2.73;1.60;;;;;;;;;;5040745;28;20410;-80
2022/02/21 07:04:07;;;;;;;6.20;1.43;;;;;;;;;;5040618;28;20410;-78
2022/02/21 07:06:35;;;;;;;2.57;1.60;;;;;;;;;;5040144;28;20422;-80
2022/02/21 07:09:01;;;;;;;2.07;1.47;;;;;;;;;;5041376;28;20621;-78
2022/02/21 07:11:27;;;;;;;2.20;1.47;;;;;;;;;;5040527;28;20398;-79
2022/02/21 07:13:53;;;;;;;3.10;1.50;;;;;;;;;;5040159;28;20398;-79
2022/02/21 07:16:19;;;;;;;1.83;1.30;;;;;;;;;;5039791;28;20766;-80
2022/02/21 07:18:45;;;;;;;4.53;1.40;;;;;;;;;;5041452;28;20418;-80
2022/02/21 07:21:11;;;;;;;3.10;1.20;;;;;;;;;;5040690;28;20417;-80
2022/02/21 07:23:38;;;;;;;3.97;1.23;;;;;;;;;;5039466;28;20406;-80
2022/02/21 07:26:04;;;;;;;3.07;1.40;;;;;;;;;;5041023;28;20406;-79
2022/02/21 07:28:30;;;;;;;2.30;1.50;;;;;;;;;;5047687;28;20498;-80
2022/02/21 07:30:56;;;;;;;1.80;1.20;;;;;;;;;;5050946;28;20429;-79
2022/02/21 07:33:22;;;;;;;2.60;1.20;;;;;;;;;;5051701;28;20422;-80
2022/02/21 07:35:48;;;;;;;2.93;1.57;;;;;;;;;;5050684;28;20490;-79
2022/02/21 07:38:14;;;;;;;3.43;1.70;;;;;;;;;;5053978;28;20839;-79
2022/02/21 07:40:40;;;;;;;3.00;1.73;;;;;;;;;;5051321;28;20421;-78
2022/02/21 07:43:08;;;;;;;2.00;1.60;;;;;;;;;;5052652;28;20398;-79
2022/02/21 07:45:34;;;;;;;1.77;1.30;;;;;;;;;;5053587;28;20425;-79
2022/02/21 07:48:01;;;;;;;2.47;1.10;;;;;;;;;;5053351;28;20382;-78
2022/02/21 07:50:33;;;;;;;1.87;1.40;;;;;;;;;;5041324;28;20783;-78
2022/02/21 07:52:59;;;;;;;4.37;1.50;;;;;;;;;;5039989;28;21017;-78
2022/02/21 07:55:26;;;;;;;3.30;1.27;;;;;;;;;;5044094;28;20427;-78
2022/02/21 07:57:52;;;;;;;3.13;1.73;;;;;;;;;;5042776;28;20453;-79
2022/02/21 08:00:19;;;;;;;4.60;1.37;;;;;;;;;;5033534;28;20458;-79
2022/02/21 08:02:45;;;;;;;2.73;1.40;;;;;;;;;;5037683;28;20425;-78
2022/02/21 08:05:11;;;;;;;10.30;1.60;;;;;;;;;;5045381;28;20417;-79
2022/02/21 08:07:38;;;;;;;3.40;1.73;;;;;;;;;;5039460;28;20429;-78
2022/02/21 08:10:05;;;;;;;12.43;1.50;;;;;;;;;;5038153;28;20477;-79
2022/02/21 08:12:31;;;;;;;3.50;1.60;;;;;;;;;;5037093;28;20423;-78
2022/02/21 08:14:57;;;;;;;4.43;1.40;;;;;;;;;;5033053;28;20444;-79
2022/02/21 08:17:25;;;;;;;3.23;1.30;;;;;;;;;;5039300;28;20176;-79
2022/02/21 08:19:51;;;;;;;2.20;1.20;;;;;;;;;;5039433;28;20458;-79
2022/02/21 08:22:17;;;;;;;4.17;1.97;;;;;;;;;;5038513;28;20426;-80
2022/02/21 08:24:43;;;;;;;5.63;1.77;;;;;;;;;;5036589;28;21130;-79
2022/02/21 08:27:10;;;;;;;1.67;1.20;;;;;;;;;;5025612;28;20430;-78
2022/02/21 08:29:36;;;;;;;4.60;1.57;;;;;;;;;;5031595;28;20501;-79
2022/02/21 08:32:02;;;;;;;3.20;1.70;;;;;;;;;;5036041;28;20428;-77
2022/02/21 08:34:30;;;;;;;2.63;1.47;;;;;;;;;;5036565;28;20414;-79
2022/02/21 08:36:56;;;;;;;3.97;1.60;;;;;;;;;;5036259;28;20444;-78
2022/02/21 08:39:22;;;;;;;5.00;1.40;;;;;;;;;;5029609;28;20551;-78
2022/02/21 08:41:48;;;;;;;4.40;1.20;;;;;;;;;;5033114;28;20780;-78
2022/02/21 08:44:14;;;;;;;2.90;1.57;;;;;;;;;;5030332;28;20172;-79
2022/02/21 08:46:40;;;;;;;2.53;1.53;;;;;;;;;;5035861;28;20831;-77
2022/02/21 08:49:06;;;;;;;3.30;1.17;;;;;;;;;;5035493;28;20801;-78
2022/02/21 08:51:33;;;;;;;4.40;2.00;;;;;;;;;;5037829;28;20174;-79
2022/02/21 08:53:59;;;;;;;2.00;1.23;;;;;;;;;;5039652;28;20431;-79
2022/02/21 08:56:26;;;;;;;2.20;1.50;;;;;;;;;;5040515;28;20414;-79
2022/02/21 08:58:52;;;;;;;2.70;1.57;;;;;;;;;;5042210;28;20319;-79
2022/02/21 09:01:18;;;;;;;2.27;1.63;;;;;;;;;;5040689;28;20421;-78
2022/02/21 09:03:44;;;;;;;10.13;2.93;;;;;;;;;;5039848;28;20441;-78
2022/02/21 09:06:11;;;;;;;5.53;2.27;;;;;;;;;;5038225;28;20421;-77
2022/02/21 09:08:37;;;;;;;3.17;1.60;;;;;;;;;;5037428;28;20454;-77
2022/02/21 09:11:03;;;;;;;3.50;1.50;;;;;;;;;;5034780;28;20422;-76
2022/02/21 09:13:29;;;;;;;4.37;1.97;;;;;;;;;;5043227;28;20405;-77
2022/02/21 09:15:55;;;;;;;4.83;1.80;;;;;;;;;;5039608;28;20398;-77
2022/02/21 09:18:22;;;;;;;2.70;1.50;;;;;;;;;;5034988;28;21986;-77
2022/02/21 09:20:48;;;;;;;2.90;1.40;;;;;;;;;;5037601;28;20765;-77
2022/02/21 09:23:14;;;;;;;3.23;1.40;;;;;;;;;;5037857;28;20972;-76
2022/02/21 09:25:40;;;;;;;2.80;1.33;;;;;;;;;;5035093;28;20418;-76
2022/02/21 09:28:06;;;;;;;6.70;1.53;;;;;;;;;;5033612;28;20505;-77
2022/02/21 09:30:32;;;;;;;3.20;1.33;;;;;;;;;;5033606;28;20879;-77
2022/02/21 09:32:59;;;;;;;4.77;1.77;;;;;;;;;;5035397;28;20394;-77
2022/02/21 09:35:25;;;;;;;2.13;1.30;;;;;;;;;;5036217;28;20417;-77
2022/02/21 09:37:51;;;;;;;6.60;1.50;;;;;;;;;;5034026;28;20417;-77
2022/02/21 09:40:18;;;;;;;5.37;1.50;;;;;;;;;;5032003;28;21194;-78
2022/02/21 09:42:44;;;;;;;5.87;2.00;;;;;;;;;;5034407;28;20784;-78
2022/02/21 09:45:10;;;;;;;3.13;1.60;;;;;;;;;;5035879;28;20407;-77
2022/02/21 09:47:36;;;;;;;2.13;1.30;;;;;;;;;;5034330;28;20476;-77
2022/02/21 09:50:04;;;;;;;2.93;1.70;;;;;;;;;;5034930;28;20500;-77
2022/02/21 09:52:30;;;;;;;3.77;1.53;;;;;;;;;;5031707;28;20432;-77
2022/02/21 09:54:59;;;;;;;7.07;1.77;;;;;;;;;;5031965;28;20418;-77
2022/02/21 09:57:25;;;;;;;2.20;1.17;;;;;;;;;;5028722;28;20795;-77
2022/02/21 09:59:51;;;;;;;3.60;1.40;;;;;;;;;;5031316;28;20446;-77
2022/02/21 10:02:23;;;;;;;4.20;1.80;;;;;;;;;;5035540;28;20765;-76
2022/02/21 10:05:08;;;;;;;4.33;1.77;;;;;;;;;;5034869;28;20415;-75
2022/02/21 10:07:36;;;;;;;6.13;2.83;;;;;;;;;;5034056;28;20422;-78
2022/02/21 10:10:03;;;;;;;5.10;1.87;;;;;;;;;;5035498;28;20950;-78
2022/02/21 10:12:30;;;;;;;4.33;1.20;;;;;;;;;;5038200;28;20430;-77
2022/02/21 10:14:57;;;;;;;2.27;1.10;;;;;;;;;;5034759;28;20513;-77
2022/02/21 10:17:24;;;;;;;6.73;1.80;;;;;;;;;;5035972;28;20535;-77
2022/02/21 10:20:02;;;;;;;7.10;1.67;;;;;;;;;;5036245;28;20435;-79
2022/02/21 10:22:32;;;;;;;7.83;2.00;;;;;;;;;;5034299;28;20422;-78
2022/02/21 10:24:58;;;;;;;3.70;1.47;;;;;;;;;;5035301;28;20418;-78
2022/02/21 10:27:29;;;;;;;8.40;2.00;;;;;;;;;;5040462;28;20448;-77
2022/02/21 10:30:05;;;;;;;5.43;1.90;;;;;;;;;;5029592;28;20530;-78
2022/02/21 10:32:31;;;;;;;6.53;2.27;;;;;;;;;;5032357;28;20425;-77
2022/02/21 10:35:10;;;;;;;5.90;1.70;;;;;;;;;;5033708;28;20430;-78
2022/02/21 10:37:41;;;;;;;5.30;1.57;;;;;;;;;;5035778;28;20418;-78
2022/02/21 10:40:12;;;;;;;2.83;1.40;;;;;;;;;;5035506;28;20481;-78
2022/02/21 10:42:39;;;;;;;1.97;1.30;;;;;;;;;;5033651;28;20506;-78
2022/02/21 10:45:11;;;;;;;4.00;1.50;;;;;;;;;;5034569;28;20511;-77
2022/02/21 10:47:38;;;;;;;5.95;1.50;;;;;;;;;;5029262;28;21233;-79
2022/02/21 10:50:04;;;;;;;3.30;1.27;;;;;;;;;;5034478;28;20231;-77
2022/02/21 10:52:35;;;;;;;3.10;1.50;;;;;;;;;;5029772;28;20425;-78
2022/02/21 10:55:02;;;;;;;3.80;1.30;;;;;;;;;;5031127;28;20480;-77
2022/02/21 10:57:28;;;;;;;2.27;1.20;;;;;;;;;;5033154;28;20414;-77
2022/02/21 10:59:55;;;;;;;3.20;1.60;;;;;;;;;;5031875;28;20760;-78
2022/02/21 11:02:22;;;;;;;3.27;1.80;;;;;;;;;;5031531;28;20937;-77
2022/02/21 11:04:48;;;;;;;6.00;1.70;;;;;;;;;;5032848;28;20422;-77
2022/02/21 11:07:15;;;;;;;3.20;1.00;;;;;;;;;;5022852;28;20440;-77
2022/02/21 11:09:42;;;;;;;5.93;1.70;;;;;;;;;;5032646;28;21067;-77
2022/02/21 11:12:08;;;;;;;3.50;1.30;;;;;;;;;;5033287;28;20169;-77
2022/02/21 11:14:35;;;;;;;3.50;1.80;;;;;;;;;;5034962;28;20418;-77
2022/02/21 11:17:05;;;;;;;3.97;1.40;;;;;;;;;;5038117;28;20437;-78
2022/02/21 11:19:31;;;;;;;6.57;1.87;;;;;;;;;;5038511;28;20446;-79
2022/02/21 11:21:58;;;;;;;6.03;1.30;;;;;;;;;;5035114;28;20433;-79
2022/02/21 11:24:28;;;;;;;6.97;2.27;;;;;;;;;;5035970;28;20167;-78
2022/02/21 11:27:08;;;;;;;4.30;1.63;;;;;;;;;;5040566;28;20415;-78
2022/02/21 11:29:52;;;;;;;4.07;2.03;;;;;;;;;;5037068;28;20481;-79
2022/02/21 11:32:19;;;;;;;4.53;1.80;;;;;;;;;;5038868;28;20763;-78
2022/02/21 11:35:10;;;;;;;3.47;1.27;;;;;;;;;;5036689;28;20426;-77
2022/02/21 11:37:36;;;;;;;4.50;1.50;;;;;;;;;;5032829;28;20417;-79
2022/02/21 11:40:03;;;;;;;8.23;1.50;;;;;;;;;;5031408;28;20227;-78
2022/02/21 11:42:30;;;;;;;4.87;1.37;;;;;;;;;;5028932;28;20415;-78
2022/02/21 11:44:58;;;;;;;3.40;1.80;;;;;;;;;;5032013;28;20763;-78
2022/02/21 11:47:33;;;;;;;4.53;1.53;;;;;;;;;;5036262;28;20468;-78
2022/02/21 11:49:59;;;;;;;7.13;1.92;;;;;;;;;;5026491;28;20441;-78
2022/02/21 11:52:36;;;;;;;5.67;1.97;;;;;;;;;;5037634;28;20257;-79
2022/02/21 11:55:03;;;;;;;3.93;1.30;;;;;;;;;;5022473;28;20491;-77
2022/02/21 11:57:37;;;;;;;2.67;1.40;;;;;;;;;;5032173;28;20433;-78
2022/02/21 12:00:22;;;;;;;3.90;1.53;;;;;;;;;;5028215;28;20465;-79
2022/02/21 12:03:07;;;;;;;5.17;1.97;;;;;;;;;;5035471;28;20426;-80
2022/02/21 12:05:33;;;;;;;12.20;2.07;;;;;;;;;;5036767;28;20460;-79
2022/02/21 12:07:59;;;;;;;10.40;2.50;;;;;;;;;;5035599;28;20468;-80
2022/02/21 12:10:25;;;;;;;6.50;2.00;;;;;;;;;;5039410;28;20446;-80
2022/02/21 12:12:51;;;;;;;7.37;2.03;;;;;;;;;;5035782;28;20457;-79
2022/02/21 12:15:17;;;;;;;6.30;2.07;;;;;;;;;;5037518;28;20421;-79
2022/02/21 12:17:44;;;;;;;6.10;1.90;;;;;;;;;;5036077;28;20520;-79
2022/02/21 12:20:33;;;;;;;3.63;1.50;;;;;;;;;;5033840;28;20479;-78
2022/02/21 12:23:05;;;;;;;5.75;1.83;;;;;;;;;;5035398;28;20433;-79
2022/02/21 12:25:40;;;;;;;9.60;1.90;;;;;;;;;;5034875;28;20182;-78
2022/02/21 12:28:13;;;;;;;5.38;2.10;;;;;;;;;;5035969;28;20455;-78
2022/02/21 12:30:40;;;;;;;5.90;1.83;;;;;;;;;;5031968;28;20171;-78
2022/02/21 12:33:07;;;;;;;4.93;1.80;;;;;;;;;;5035513;28;20969;-79
2022/02/21 12:35:42;;;;;;;6.10;1.80;;;;;;;;;;5032076;28;20425;-78
2022/02/21 12:38:09;;;;;;;3.87;1.77;;;;;;;;;;5023313;28;20607;-76
2022/02/21 12:40:35;;;;;;;4.70;1.70;;;;;;;;;;5029268;28;20456;-78
2022/02/21 12:43:01;;;;;;;4.53;1.80;;;;;;;;;;5035526;28;20446;-78
2022/02/21 12:45:27;;;;;;;8.27;2.30;;;;;;;;;;5034796;28;20421;-78
2022/02/21 12:47:56;;;;;;;5.07;1.87;;;;;;;;;;5035090;28;20175;-78
2022/02/21 12:50:26;;;;;;;11.53;2.00;;;;;;;;;;5033674;28;20470;-79
2022/02/21 12:52:58;;;;;;;4.50;1.67;;;;;;;;;;5014684;28;20966;-79
2022/02/21 12:55:26;;;;;;;7.37;1.83;;;;;;;;;;5037483;28;20418;-79
2022/02/21 12:57:52;;;;;;;2.30;1.37;;;;;;;;;;5036532;28;20528;-78
2022/02/21 13:00:18;;;;;;;6.00;2.53;;;;;;;;;;5041939;28;20442;-79
2022/02/21 13:02:44;;;;;;;5.93;2.10;;;;;;;;;;5038022;28;20417;-79
2022/02/21 13:05:14;;;;;;;5.50;2.27;;;;;;;;;;5037767;28;20180;-79
2022/02/21 13:07:40;;;;;;;5.63;2.23;;;;;;;;;;5034343;28;20431;-79
2022/02/21 13:10:09;;;;;;;4.73;1.80;;;;;;;;;;5032030;28;20474;-78
2022/02/21 13:12:35;;;;;;;5.77;1.97;;;;;;;;;;5031465;28;20453;-79
2022/02/21 13:15:01;;;;;;;6.33;2.30;;;;;;;;;;5034850;28;21199;-78
2022/02/21 13:17:30;;;;;;;8.00;1.93;;;;;;;;;;5033623;28;20423;-79
2022/02/21 13:19:56;;;;;;;5.53;2.23;;;;;;;;;;5034842;28;20992;-79
2022/02/21 13:22:26;;;;;;;4.37;1.83;;;;;;;;;;5028554;28;20770;-78
2022/02/21 13:24:56;;;;;;;6.23;1.90;;;;;;;;;;5032449;28;20422;-78
2022/02/21 13:27:23;;;;;;;3.20;1.73;;;;;;;;;;5035508;28;20419;-78
2022/02/21 13:29:50;;;;;;;8.77;2.20;;;;;;;;;;5029725;28;20464;-80
2022/02/21 13:32:16;;;;;;;3.57;1.63;;;;;;;;;;5040719;28;20410;-79
2022/02/21 13:35:05;;;;;;;11.13;1.93;;;;;;;;;;5044967;28;20513;-79
2022/02/21 13:37:34;;;;;;;4.43;1.67;;;;;;;;;;5041278;28;20420;-80
2022/02/21 13:40:12;;;;;;;6.50;2.03;;;;;;;;;;5042387;28;20456;-79
2022/02/21 13:42:38;;;;;;;7.63;1.70;;;;;;;;;;5037724;28;20445;-79
2022/02/21 13:45:16;;;;;;;4.87;2.03;;;;;;;;;;5038659;28;20477;-79
2022/02/21 13:47:43;;;;;;;4.27;1.80;;;;;;;;;;5033599;28;20430;-79
2022/02/21 13:50:28;;;;;;;7.80;1.80;;;;;;;;;;5035407;28;20482;-79
2022/02/21 13:52:54;;;;;;;9.50;2.43;;;;;;;;;;5035181;28;20426;-79
2022/02/21 13:55:27;;;;;;;6.33;1.83;;;;;;;;;;5041365;28;20943;-78
2022/02/21 13:58:04;;;;;;;6.33;1.60;;;;;;;;;;5042654;28;21242;-79
2022/02/21 14:00:33;;;;;;;7.43;2.20;;;;;;;;;;5037057;28;21106;-79
2022/02/21 14:02:59;;;;;;;3.20;1.20;;;;;;;;;;5026575;28;20423;-78
2022/02/21 14:05:25;;;;;;;5.67;1.90;;;;;;;;;;5035528;28;20426;-78
2022/02/21 14:07:52;;;;;;;7.97;2.40;;;;;;;;;;5036685;28;20410;-78
2022/02/21 14:10:21;;;;;;;8.10;1.97;;;;;;;;;;5037284;28;20465;-80
2022/02/21 14:12:58;;;;;;;2.63;1.60;;;;;;;;;;5038239;28;20484;-78
2022/02/21 14:15:24;;;;;;;7.93;2.00;;;;;;;;;;5035636;28;20422;-79
2022/02/21 14:17:51;;;;;;;7.30;1.80;;;;;;;;;;5038716;28;20425;-77
2022/02/21 14:20:17;;;;;;;5.03;1.73;;;;;;;;;;5039259;28;20196;-79
2022/02/21 14:22:43;;;;;;;4.40;2.30;;;;;;;;;;5043512;28;20425;-79
2022/02/21 14:25:09;;;;;;;4.23;1.80;;;;;;;;;;5039465;28;20457;-79
2022/02/21 14:27:35;;;;;;;7.47;1.90;;;;;;;;;;5038634;28;20821;-79
2022/02/21 14:30:01;;;;;;;6.67;2.10;;;;;;;;;;5039002;28;20234;-79
2022/02/21 14:32:27;;;;;;;12.13;1.97;;;;;;;;;;5038096;28;20953;-79
2022/02/21 14:34:56;;;;;;;5.80;1.53;;;;;;;;;;5038500;28;20421;-80
2022/02/21 14:37:22;;;;;;;5.80;1.33;;;;;;;;;;5047285;28;20481;-79
2022/02/21 14:39:48;;;;;;;5.70;1.63;;;;;;;;;;5039541;28;20441;-79
2022/02/21 14:42:14;;;;;;;4.00;1.60;;;;;;;;;;5035429;28;20525;-78
2022/02/21 14:44:40;;;;;;;2.97;1.40;;;;;;;;;;5040170;28;20437;-79